createdAt,value
2023-05-20T00:00:02.828Z,68.33
2023-05-20T00:02:33.881Z,68.29
2023-05-20T00:05:02.795Z,68.26
2023-05-20T00:07:31.252Z,67.96
2023-05-20T00:09:59.920Z,68.26
2023-05-20T00:12:29.888Z,68.03
2023-05-20T00:14:58.340Z,68.43
2023-05-20T00:17:28.362Z,67.94
2023-05-20T00:19:57.152Z,68.14
2023-05-20T00:22:27.597Z,68.61
2023-05-20T00:24:55.894Z,69.44
2023-05-20T00:27:24.523Z,70.92
2023-05-20T00:29:54.388Z,71.18
2023-05-20T00:32:22.896Z,72.60
2023-05-20T00:34:56.948Z,72.50
2023-05-20T00:37:25.566Z,72.00
2023-05-20T00:39:54.294Z,69.71
2023-05-20T00:42:22.779Z,70.28
2023-05-20T00:44:51.828Z,69.98
2023-05-20T00:47:22.553Z,69.38
2023-05-20T00:49:51.585Z,68.50
2023-05-20T00:52:20.589Z,68.30
2023-05-20T00:54:48.955Z,68.15
2023-05-20T00:57:17.458Z,68.31
2023-05-20T00:59:46.134Z,68.16
2023-05-20T01:02:14.527Z,68.22
2023-05-20T01:04:47.287Z,67.74
2023-05-20T01:07:17.913Z,67.43
2023-05-20T01:09:46.626Z,68.20
2023-05-20T01:12:19.258Z,67.97
2023-05-20T01:14:49.818Z,68.24
2023-05-20T01:17:20.950Z,67.82
2023-05-20T01:19:51.075Z,68.13
2023-05-20T01:22:19.406Z,68.61
2023-05-20T01:24:49.433Z,68.62
2023-05-20T01:27:20.556Z,68.86
2023-05-20T01:29:50.568Z,69.41
2023-05-20T01:32:20.535Z,69.18
2023-05-20T01:34:49.023Z,69.13
2023-05-20T01:37:17.714Z,69.38
2023-05-20T01:39:46.412Z,69.28
2023-05-20T01:42:16.192Z,69.62
2023-05-20T01:44:44.604Z,70.27
2023-05-20T01:47:13.322Z,70.10
2023-05-20T01:49:43.228Z,70.00
2023-05-20T01:52:12.786Z,70.40
2023-05-20T01:54:41.346Z,70.95
2023-05-20T01:57:13.222Z,70.44
2023-05-20T01:59:43.443Z,70.91
2023-05-20T02:02:12.880Z,72.06
2023-05-20T02:04:42.582Z,72.35
2023-05-20T02:07:10.953Z,73.19
2023-05-20T02:09:39.316Z,73.95
2023-05-20T02:12:08.488Z,74.95
2023-05-20T02:14:37.068Z,73.53
2023-05-20T02:17:06.855Z,72.35
2023-05-20T02:19:35.678Z,74.15
2023-05-20T02:22:04.358Z,73.71
2023-05-20T02:24:32.771Z,74.45
2023-05-20T02:27:01.796Z,74.12
2023-05-20T02:29:30.445Z,74.56
2023-05-20T02:31:58.809Z,74.13
2023-05-20T02:34:30.320Z,73.92
2023-05-20T02:36:59.201Z,72.56
2023-05-20T02:39:31.017Z,71.90
2023-05-20T02:41:59.738Z,71.56
2023-05-20T02:44:28.085Z,73.41
2023-05-20T02:46:56.501Z,73.46
2023-05-20T02:49:25.376Z,73.53
2023-05-20T02:51:55.177Z,74.15
2023-05-20T02:54:25.805Z,73.60
2023-05-20T02:56:54.471Z,73.82
2023-05-20T02:59:22.862Z,73.58
2023-05-20T03:01:51.317Z,73.12
2023-05-20T03:04:21.781Z,75.20
2023-05-20T03:06:52.094Z,73.28
2023-05-20T03:09:22.123Z,71.84
2023-05-20T03:11:50.486Z,72.45
2023-05-20T03:14:18.904Z,72.44
2023-05-20T03:16:47.607Z,71.18
2023-05-20T03:19:16.388Z,71.21
2023-05-20T03:21:46.641Z,73.02
2023-05-20T03:24:16.048Z,72.95
2023-05-20T03:26:49.563Z,71.91
2023-05-20T03:29:19.091Z,71.51
2023-05-20T03:31:48.226Z,71.53
2023-05-20T03:34:16.831Z,73.93
2023-05-20T03:36:46.234Z,71.69
2023-05-20T03:39:14.674Z,73.24
2023-05-20T03:41:43.369Z,74.14
2023-05-20T03:44:13.615Z,72.22
2023-05-20T03:46:42.181Z,74.12
2023-05-20T03:49:10.536Z,72.85
2023-05-20T03:51:39.196Z,73.65
2023-05-20T03:54:07.848Z,73.71
2023-05-20T03:56:36.414Z,75.32
2023-05-20T03:59:05.655Z,74.16
2023-05-20T04:01:35.526Z,72.36
2023-05-20T04:04:04.518Z,73.62
2023-05-20T04:06:33.044Z,73.49
2023-05-20T04:09:01.815Z,73.67
2023-05-20T04:11:30.817Z,72.35
2023-05-20T04:14:00.440Z,71.98
2023-05-20T04:16:29.962Z,73.24
2023-05-20T04:19:01.063Z,73.11
2023-05-20T04:21:29.491Z,71.39
2023-05-20T04:23:57.919Z,73.06
2023-05-20T04:26:26.835Z,69.26
2023-05-20T04:28:55.531Z,67.34
2023-05-20T04:31:26.801Z,65.88
2023-05-20T04:33:55.658Z,65.49
2023-05-20T04:36:28.762Z,64.95
2023-05-20T04:38:57.917Z,63.10
2023-05-20T04:41:27.433Z,62.70
2023-05-20T04:43:59.847Z,62.09
2023-05-20T04:46:28.810Z,61.91
2023-05-20T04:48:57.322Z,61.67
2023-05-20T04:51:27.065Z,58.07
2023-05-20T04:53:56.423Z,58.05
2023-05-20T04:56:26.137Z,57.50
2023-05-20T04:58:56.143Z,57.71
2023-05-20T05:01:24.831Z,55.69
2023-05-20T05:03:53.304Z,56.66
2023-05-20T05:06:22.813Z,56.82
2023-05-20T05:08:52.753Z,57.96
2023-05-20T05:11:21.189Z,56.92
2023-05-20T05:13:49.614Z,55.88
2023-05-20T05:16:19.196Z,55.27
2023-05-20T05:18:47.731Z,56.88
2023-05-20T05:21:16.307Z,57.23
2023-05-20T05:23:46.337Z,55.01
2023-05-20T05:26:16.240Z,55.96
2023-05-20T05:28:45.427Z,57.19
2023-05-20T05:31:14.787Z,56.67
2023-05-20T05:33:43.222Z,55.85
2023-05-20T05:36:11.975Z,56.60
2023-05-20T05:38:40.414Z,57.76
2023-05-20T05:41:08.879Z,57.07
2023-05-20T05:43:38.961Z,55.62
2023-05-20T05:46:09.645Z,56.61
2023-05-20T05:48:39.096Z,55.83
2023-05-20T05:51:07.468Z,54.56
2023-05-20T05:53:36.836Z,54.98
2023-05-20T05:56:05.886Z,53.88
2023-05-20T05:58:34.245Z,55.18
2023-05-20T06:01:04.000Z,55.71
2023-05-20T06:03:32.815Z,55.95
2023-05-20T06:06:01.243Z,56.95
2023-05-20T06:08:29.914Z,58.18
2023-05-20T06:10:58.680Z,57.60
2023-05-20T06:13:30.109Z,57.94
2023-05-20T06:15:58.769Z,59.08
2023-05-20T06:18:28.850Z,58.73
2023-05-20T06:20:57.951Z,59.00
2023-05-20T06:23:26.779Z,59.97
2023-05-20T06:25:58.575Z,59.45
2023-05-20T06:28:27.427Z,59.22
2023-05-20T06:30:55.958Z,58.47
2023-05-20T06:33:26.071Z,59.43
2023-05-20T06:35:57.323Z,57.65
2023-05-20T06:38:25.770Z,58.13
2023-05-20T06:40:54.251Z,56.90
2023-05-20T06:43:25.378Z,56.87
2023-05-20T06:45:54.294Z,55.82
2023-05-20T06:48:23.186Z,56.70
2023-05-20T06:50:51.614Z,55.84
2023-05-20T06:53:21.555Z,57.67
2023-05-20T06:55:50.247Z,56.91
2023-05-20T06:58:18.662Z,54.58
2023-05-20T07:00:47.872Z,55.34
2023-05-20T07:03:17.074Z,54.75
2023-05-20T07:05:45.909Z,54.14
2023-05-20T07:08:15.526Z,54.26
2023-05-20T07:10:45.866Z,54.07
2023-05-20T07:13:16.326Z,53.56
2023-05-20T07:15:47.402Z,53.67
2023-05-20T07:18:16.553Z,54.06
2023-05-20T07:20:45.514Z,53.63
2023-05-20T07:23:15.778Z,52.69
2023-05-20T07:25:46.136Z,53.35
2023-05-20T07:28:16.514Z,54.00
2023-05-20T07:30:50.099Z,52.78
2023-05-20T07:33:19.336Z,54.43
2023-05-20T07:35:48.992Z,52.23
2023-05-20T07:38:17.413Z,51.79
2023-05-20T07:40:48.148Z,53.26
2023-05-20T07:43:18.195Z,53.18
2023-05-20T07:45:47.925Z,52.34
2023-05-20T07:48:16.748Z,52.45
2023-05-20T07:50:45.328Z,52.08
2023-05-20T07:53:13.819Z,53.44
2023-05-20T07:55:42.522Z,53.00
2023-05-20T07:58:15.642Z,51.64
2023-05-20T08:00:44.931Z,50.70
2023-05-20T08:03:14.269Z,50.92
2023-05-20T08:05:43.606Z,51.26
2023-05-20T08:08:12.052Z,49.47
2023-05-20T08:10:41.131Z,50.20
2023-05-20T08:13:09.536Z,50.78
2023-05-20T08:15:40.291Z,50.12
2023-05-20T08:18:09.258Z,49.65
2023-05-20T08:20:37.699Z,49.49
2023-05-20T08:23:06.563Z,48.95
2023-05-20T08:25:36.044Z,50.22
2023-05-20T08:28:05.972Z,50.66
2023-05-20T08:30:35.078Z,51.48
2023-05-20T08:33:05.418Z,51.49
2023-05-20T08:35:34.299Z,51.21
2023-05-20T08:38:02.850Z,50.51
2023-05-20T08:40:35.178Z,50.55
2023-05-20T08:43:03.720Z,51.01
2023-05-20T08:45:34.311Z,51.14
2023-05-20T08:48:04.928Z,49.87
2023-05-20T08:50:34.986Z,50.88
2023-05-20T08:53:03.337Z,49.95
2023-05-20T08:55:32.456Z,49.92
2023-05-20T08:58:01.136Z,49.55
2023-05-20T09:00:29.544Z,49.33
2023-05-20T09:03:00.747Z,49.03
2023-05-20T09:05:29.925Z,49.31
2023-05-20T09:08:10.665Z,49.14
2023-05-20T09:10:39.628Z,48.77
2023-05-20T09:13:08.441Z,49.46
2023-05-20T09:15:37.170Z,49.85
2023-05-20T09:18:07.599Z,49.22
2023-05-20T09:20:37.247Z,48.91
2023-05-20T09:23:07.722Z,48.12
2023-05-20T09:25:38.722Z,47.42
2023-05-20T09:28:07.887Z,47.40
2023-05-20T09:30:40.655Z,47.29
2023-05-20T09:33:09.581Z,48.38
2023-05-20T09:35:38.674Z,47.88
2023-05-20T09:38:08.711Z,48.25
2023-05-20T09:40:40.438Z,46.83
2023-05-20T09:43:09.103Z,46.41
2023-05-20T09:45:38.533Z,45.99
2023-05-20T09:48:07.114Z,46.75
2023-05-20T09:50:35.658Z,46.51
2023-05-20T09:53:05.139Z,46.31
2023-05-20T09:55:35.672Z,46.46
2023-05-20T09:58:04.573Z,46.04
2023-05-20T10:00:33.086Z,45.10
2023-05-20T10:03:01.906Z,44.11
2023-05-20T10:05:30.901Z,44.32
2023-05-20T10:08:13.650Z,44.49
2023-05-20T10:10:44.995Z,44.19
2023-05-20T10:13:15.968Z,43.11
2023-05-20T10:15:46.035Z,42.64
2023-05-20T10:18:17.246Z,43.07
2023-05-20T10:20:46.691Z,41.36
2023-05-20T10:23:21.723Z,41.84
2023-05-20T10:25:57.965Z,41.24
2023-05-20T10:28:29.462Z,41.68
2023-05-20T10:31:16.006Z,39.18
2023-05-20T10:33:44.606Z,39.82
2023-05-20T10:36:23.243Z,40.55
2023-05-20T10:38:55.533Z,40.38
2023-05-20T10:41:27.395Z,38.99
2023-05-20T10:44:03.150Z,39.88
2023-05-20T10:46:40.122Z,40.73
2023-05-20T10:49:23.247Z,37.94
2023-05-20T10:51:53.063Z,38.04
2023-05-20T10:54:21.645Z,36.82
2023-05-20T10:56:54.700Z,37.09
2023-05-20T10:59:23.336Z,36.22
2023-05-20T11:01:51.758Z,36.36
2023-05-20T11:04:20.652Z,35.61
2023-05-20T11:06:54.341Z,35.09
2023-05-20T11:09:22.998Z,35.67
2023-05-20T11:11:51.862Z,34.56
2023-05-20T11:14:22.268Z,35.14
2023-05-20T11:16:52.949Z,32.87
2023-05-20T11:19:21.941Z,33.57
2023-05-20T11:21:51.478Z,33.54
2023-05-20T11:24:24.247Z,33.15
2023-05-20T11:26:52.895Z,33.13
2023-05-20T11:29:22.615Z,32.44
2023-05-20T11:31:53.553Z,32.45
2023-05-20T11:34:25.759Z,33.15
2023-05-20T11:36:57.607Z,32.30
2023-05-20T11:39:26.980Z,31.76
2023-05-20T11:41:55.716Z,31.22
2023-05-20T11:44:25.537Z,32.01
2023-05-20T11:47:00.288Z,32.12
2023-05-20T11:49:28.838Z,32.26
2023-05-20T11:51:57.854Z,31.81
2023-05-20T11:54:26.412Z,33.53
2023-05-20T11:56:55.202Z,33.17
2023-05-20T11:59:26.312Z,32.27
2023-05-20T12:01:54.734Z,33.08
2023-05-20T12:04:23.585Z,34.58
2023-05-20T12:06:53.213Z,35.08
2023-05-20T12:09:22.578Z,34.67
2023-05-20T12:11:51.377Z,33.91
2023-05-20T12:14:19.780Z,34.78
2023-05-20T12:16:49.544Z,33.91
2023-05-20T12:19:18.218Z,34.88
2023-05-20T12:21:47.299Z,34.10
2023-05-20T12:24:15.695Z,34.01
2023-05-20T12:26:44.484Z,34.23
2023-05-20T12:29:13.351Z,34.14
2023-05-20T12:31:41.764Z,33.63
2023-05-20T12:34:11.774Z,34.00
2023-05-20T12:36:40.185Z,32.64
2023-05-20T12:39:09.490Z,33.14
2023-05-20T12:41:38.203Z,32.99
2023-05-20T12:44:06.801Z,32.60
2023-05-20T12:46:36.285Z,33.88
2023-05-20T12:49:05.154Z,33.11
2023-05-20T12:51:34.837Z,32.42
2023-05-20T12:54:03.144Z,33.72
2023-05-20T12:56:31.819Z,32.42
2023-05-20T12:59:00.206Z,30.77
2023-05-20T13:01:29.714Z,32.12
2023-05-20T13:03:58.308Z,32.61
2023-05-20T13:06:26.741Z,33.32
2023-05-20T13:08:56.480Z,32.24
2023-05-20T13:11:25.138Z,31.71
2023-05-20T13:13:54.958Z,32.66
2023-05-20T13:16:23.405Z,32.86
2023-05-20T13:18:54.783Z,32.12
2023-05-20T13:21:23.455Z,31.72
2023-05-20T13:23:52.101Z,32.07
2023-05-20T13:26:21.980Z,31.67
2023-05-20T13:28:50.348Z,32.85
2023-05-20T13:31:19.027Z,33.50
2023-05-20T13:33:47.396Z,32.85
2023-05-20T13:36:15.783Z,33.63
2023-05-20T13:38:44.434Z,32.91
2023-05-20T13:41:12.836Z,32.73
2023-05-20T13:43:42.691Z,32.36
2023-05-20T13:46:13.452Z,32.24
2023-05-20T13:48:41.841Z,32.13
2023-05-20T13:51:10.209Z,31.70
2023-05-20T13:53:40.024Z,30.98
2023-05-20T13:56:09.317Z,31.52
2023-05-20T13:58:37.713Z,32.22
2023-05-20T14:01:07.858Z,31.12
2023-05-20T14:03:37.545Z,30.85
2023-05-20T14:06:06.326Z,29.86
2023-05-20T14:08:34.690Z,31.91
2023-05-20T14:11:03.546Z,31.69
2023-05-20T14:13:32.187Z,31.52
2023-05-20T14:16:00.591Z,30.97
2023-05-20T14:18:30.677Z,31.91
2023-05-20T14:20:59.001Z,31.91
2023-05-20T14:23:27.375Z,30.65
2023-05-20T14:25:56.075Z,30.51
2023-05-20T14:28:24.432Z,29.89
2023-05-20T14:30:53.730Z,29.40
2023-05-20T14:33:22.380Z,29.91
2023-05-20T14:35:52.167Z,30.18
2023-05-20T14:38:21.464Z,29.38
2023-05-20T14:40:50.125Z,28.98
2023-05-20T14:43:18.492Z,29.39
2023-05-20T14:45:48.990Z,29.23
2023-05-20T14:48:17.711Z,28.01
2023-05-20T14:50:47.603Z,27.79
2023-05-20T14:53:19.415Z,27.01
2023-05-20T14:55:47.767Z,27.40
2023-05-20T14:58:16.057Z,28.31
2023-05-20T15:00:44.722Z,28.27
2023-05-20T15:03:13.364Z,28.21
2023-05-20T15:05:42.587Z,29.02
2023-05-20T15:08:11.606Z,27.68
2023-05-20T15:10:41.685Z,29.70
2023-05-20T15:13:12.050Z,29.22
2023-05-20T15:15:41.072Z,28.70
2023-05-20T15:18:09.477Z,28.62
2023-05-20T15:20:37.889Z,28.12
2023-05-20T15:23:06.546Z,28.85
2023-05-20T15:25:35.138Z,28.90
2023-05-20T15:28:05.156Z,28.86
2023-05-20T15:30:34.078Z,26.42
2023-05-20T15:33:02.975Z,25.87
2023-05-20T15:35:31.431Z,26.09
2023-05-20T15:38:00.100Z,25.78
2023-05-20T15:40:28.658Z,25.19
2023-05-20T15:42:58.480Z,25.63
2023-05-20T15:45:28.606Z,26.92
2023-05-20T15:47:57.034Z,26.71
2023-05-20T15:50:25.972Z,27.37
2023-05-20T15:52:54.740Z,27.66
2023-05-20T15:55:23.999Z,29.05
2023-05-20T15:57:52.510Z,29.05
2023-05-20T16:00:21.351Z,28.47
2023-05-20T16:02:51.464Z,29.65
2023-05-20T16:05:19.988Z,29.39
2023-05-20T16:07:48.365Z,28.87
2023-05-20T16:10:17.075Z,27.72
2023-05-20T16:12:45.606Z,27.46
2023-05-20T16:15:13.962Z,29.14
2023-05-20T16:17:42.672Z,30.00
2023-05-20T16:20:12.705Z,30.83
2023-05-20T16:22:41.114Z,31.26
2023-05-20T16:25:11.019Z,31.78
2023-05-20T16:27:39.395Z,31.35
2023-05-20T16:30:08.221Z,34.00
2023-05-20T16:32:36.861Z,34.05
2023-05-20T16:35:05.783Z,33.96
2023-05-20T16:37:35.746Z,34.20
2023-05-20T16:40:04.794Z,35.69
2023-05-20T16:42:33.102Z,35.86
2023-05-20T16:45:01.451Z,36.28
2023-05-20T16:47:30.138Z,37.44
2023-05-20T16:49:58.622Z,37.51
2023-05-20T16:52:27.044Z,37.75
2023-05-20T16:55:02.165Z,38.16
2023-05-20T16:57:30.651Z,37.90
2023-05-20T16:59:59.485Z,38.54
2023-05-20T17:02:27.912Z,37.53
2023-05-20T17:04:57.029Z,38.13
2023-05-20T17:07:25.716Z,38.44
2023-05-20T17:09:54.079Z,38.18
2023-05-20T17:12:23.831Z,38.26
2023-05-20T17:14:52.484Z,37.44
2023-05-20T17:17:21.305Z,38.05
2023-05-20T17:19:49.687Z,38.50
2023-05-20T17:22:19.852Z,38.14
2023-05-20T17:24:48.265Z,38.02
2023-05-20T17:27:16.646Z,39.03
2023-05-20T17:29:49.114Z,39.54
2023-05-20T17:32:17.434Z,40.14
2023-05-20T17:34:46.083Z,40.06
2023-05-20T17:37:14.498Z,39.47
2023-05-20T17:39:42.964Z,39.26
2023-05-20T17:42:11.692Z,40.34
2023-05-20T17:44:40.139Z,39.27
2023-05-20T17:47:09.806Z,39.24
2023-05-20T17:49:38.470Z,40.28
2023-05-20T17:52:07.365Z,39.82
2023-05-20T17:54:36.021Z,40.00
2023-05-20T17:57:04.847Z,39.77
2023-05-20T17:59:36.749Z,39.84
2023-05-20T18:02:06.227Z,40.92
2023-05-20T18:04:36.549Z,40.53
2023-05-20T18:07:08.961Z,40.09
2023-05-20T18:09:37.635Z,40.60
2023-05-20T18:12:06.406Z,40.40
2023-05-20T18:14:34.769Z,39.98
2023-05-20T18:17:03.436Z,39.98
2023-05-20T18:19:33.711Z,40.34
2023-05-20T18:22:03.553Z,40.91
2023-05-20T18:24:32.168Z,40.27
2023-05-20T18:27:00.591Z,41.30
2023-05-20T18:29:28.949Z,40.55
2023-05-20T18:31:57.730Z,41.11
2023-05-20T18:34:26.742Z,41.35
2023-05-20T18:36:55.103Z,41.96
2023-05-20T18:39:25.073Z,41.90
2023-05-20T18:41:53.479Z,42.32
2023-05-20T18:44:21.862Z,42.97
2023-05-20T18:46:53.888Z,43.03
2023-05-20T18:49:22.329Z,43.21
2023-05-20T18:51:53.383Z,43.44
2023-05-20T18:54:21.725Z,44.37
2023-05-20T18:56:52.546Z,44.60
2023-05-20T18:59:23.255Z,44.74
2023-05-20T19:01:52.885Z,44.72
2023-05-20T19:04:21.521Z,45.51
2023-05-20T19:06:49.889Z,45.47
2023-05-20T19:09:18.325Z,45.86
2023-05-20T19:11:46.957Z,46.05
2023-05-20T19:14:16.759Z,46.25
2023-05-20T19:16:45.090Z,45.90
2023-05-20T19:19:14.643Z,45.57
2023-05-20T19:21:44.267Z,46.02
2023-05-20T19:24:12.619Z,45.78
2023-05-20T19:26:41.287Z,45.78
2023-05-20T19:29:09.741Z,46.20
2023-05-20T19:31:43.015Z,46.26
2023-05-20T19:34:11.766Z,46.35
2023-05-20T19:36:42.562Z,45.89
2023-05-20T19:39:11.166Z,46.16
2023-05-20T19:41:39.900Z,45.95
2023-05-20T19:44:08.781Z,46.26
2023-05-20T19:46:37.236Z,46.60
2023-05-20T19:49:07.301Z,46.47
2023-05-20T19:51:35.892Z,46.22
2023-05-20T19:54:04.600Z,46.18
2023-05-20T19:56:33.247Z,47.93
2023-05-20T19:59:02.160Z,45.82
2023-05-20T20:01:30.784Z,45.66
2023-05-20T20:03:59.541Z,46.36
2023-05-20T20:06:29.317Z,46.15
2023-05-20T20:08:58.189Z,46.20
2023-05-20T20:11:26.892Z,46.57
2023-05-20T20:13:55.441Z,46.57
2023-05-20T20:16:23.987Z,46.79
2023-05-20T20:18:52.755Z,46.74
2023-05-20T20:21:21.191Z,46.71
2023-05-20T20:23:50.973Z,47.27
2023-05-20T20:26:22.709Z,46.87
2023-05-20T20:28:51.132Z,47.11
2023-05-20T20:31:19.827Z,47.21
2023-05-20T20:33:48.481Z,48.05
2023-05-20T20:36:17.091Z,48.58
2023-05-20T20:38:47.041Z,47.57
2023-05-20T20:41:17.187Z,48.48
2023-05-20T20:43:45.940Z,47.93
2023-05-20T20:46:15.416Z,48.98
2023-05-20T20:48:45.946Z,48.39
2023-05-20T20:51:15.114Z,48.77
2023-05-20T20:53:43.703Z,47.67
2023-05-20T20:56:12.090Z,48.62
2023-05-20T21:02:00.247Z,48.19
2023-05-20T21:04:28.863Z,49.06
2023-05-20T21:06:59.538Z,48.85
2023-05-20T21:09:29.747Z,47.94
2023-05-20T21:12:00.647Z,48.40
2023-05-20T21:14:30.669Z,48.54
2023-05-20T21:16:59.147Z,48.29
2023-05-20T21:19:27.976Z,48.07
2023-05-20T21:21:56.687Z,49.02
2023-05-20T21:24:25.027Z,49.21
2023-05-20T21:26:56.019Z,48.51
2023-05-20T21:29:24.642Z,48.36
2023-05-20T21:31:55.136Z,49.25
2023-05-20T21:34:23.548Z,50.39
2023-05-20T21:36:52.221Z,51.43
2023-05-20T21:39:20.552Z,50.40
2023-05-20T21:41:48.885Z,49.96
2023-05-20T21:44:17.657Z,50.37
2023-05-20T21:46:46.118Z,50.58
2023-05-20T21:49:15.860Z,49.88
2023-05-20T21:51:44.494Z,50.65
2023-05-20T21:54:12.855Z,50.28
2023-05-20T21:56:41.168Z,52.16
2023-05-20T21:59:09.864Z,51.37
2023-05-20T22:01:38.431Z,51.11
2023-05-20T22:04:07.526Z,50.77
2023-05-20T22:06:37.393Z,50.74
2023-05-20T22:09:05.926Z,52.47
2023-05-20T22:11:34.619Z,52.04
2023-05-20T22:14:03.232Z,50.94
2023-05-20T22:16:31.894Z,51.44
2023-05-20T22:19:02.740Z,51.93
2023-05-20T22:21:34.235Z,51.70
2023-05-20T22:24:09.622Z,51.14
2023-05-20T22:26:38.133Z,51.02
2023-05-20T22:29:06.651Z,52.46
2023-05-20T22:31:35.397Z,52.70
2023-05-20T22:34:04.573Z,52.66
2023-05-20T22:36:36.436Z,51.97
2023-05-20T22:39:06.995Z,51.63
2023-05-20T22:41:37.082Z,52.71
2023-05-20T22:44:05.775Z,53.01
2023-05-20T22:46:34.186Z,52.42
2023-05-20T22:49:06.523Z,52.37
2023-05-20T22:51:36.224Z,54.11
2023-05-20T22:54:04.879Z,52.63
2023-05-20T22:56:34.277Z,52.34
2023-05-20T22:59:04.310Z,53.70
2023-05-20T23:01:32.790Z,53.67
2023-05-20T23:04:01.302Z,54.25
2023-05-20T23:06:30.031Z,53.80
2023-05-20T23:08:58.326Z,54.05
2023-05-20T23:11:27.135Z,54.28
2023-05-20T23:13:55.896Z,54.72
2023-05-20T23:16:26.478Z,55.02
2023-05-20T23:18:55.071Z,55.02
2023-05-20T23:21:23.869Z,54.17
2023-05-20T23:23:52.214Z,54.79
2023-05-20T23:26:21.436Z,56.62
2023-05-20T23:28:50.076Z,56.36
2023-05-20T23:31:18.663Z,56.38
2023-05-20T23:33:48.622Z,55.83
2023-05-20T23:36:20.500Z,55.10
2023-05-20T23:38:48.870Z,56.00
2023-05-20T23:41:17.257Z,57.41
2023-05-20T23:43:45.836Z,55.55
2023-05-20T23:46:14.274Z,56.40
2023-05-20T23:51:14.866Z,55.77
2023-05-20T23:53:43.374Z,57.65
2023-05-20T23:56:11.736Z,58.76
2023-05-20T23:58:40.732Z,57.67
